Juda, Wisconsin
Current Conditions -  °F | °C
As of 7:15 AM on Sunday 21 Dec 2014 (Local Time) from KEFT Reporting Station
Haze Haze  
Wind Chill: 25°   Ceiling: 200
Heat Index: 32°   Visibility: 3mi
Dew Point: 32°   Wind: 8mph
Humidity: 100%   Direction: 170°S
Pressure: 30.11"   Gusts: NA
Location:  42.59°N, 89.5°W
Report Text: KEFT 211315Z AUTO 17007KT 3SM BR OVC002 00/00 A3011 RMK AO2
Loading
Personal Weather Stations






























Interactive Weather Map New forecast layout! Learn more

10-Day Weather Forecast

Advertisements
Track Severe Weather on mobile